sensor_id;sensor_type;location;lat;lon;timestamp;pressure;altitude;pressure_sealevel;temperature;humidity
55066;BME280;40964;42.114;24.220;2023-02-15T00:01:13;99014.81;;;0.72;70.04
55066;BME280;40964;42.114;24.220;2023-02-15T00:03:39;99015.91;;;0.91;69.22
55066;BME280;40964;42.114;24.220;2023-02-15T00:06:04;99012.94;;;0.95;69.68
55066;BME280;40964;42.114;24.220;2023-02-15T00:08:30;99029.44;;;1.15;68.70
55066;BME280;40964;42.114;24.220;2023-02-15T00:11:07;99031.06;;;1.16;68.80
55066;BME280;40964;42.114;24.220;2023-02-15T00:13:33;99010.63;;;1.13;69.25
55066;BME280;40964;42.114;24.220;2023-02-15T00:16:08;99034.56;;;1.26;69.02
55066;BME280;40964;42.114;24.220;2023-02-15T00:18:34;99030.72;;;1.21;68.42
55066;BME280;40964;42.114;24.220;2023-02-15T00:21:04;99027.25;;;1.10;68.70
55066;BME280;40964;42.114;24.220;2023-02-15T00:23:31;99037.28;;;1.04;68.70
55066;BME280;40964;42.114;24.220;2023-02-15T00:26:07;99036.00;;;0.98;69.37
55066;BME280;40964;42.114;24.220;2023-02-15T00:28:33;99036.81;;;0.99;69.72
55066;BME280;40964;42.114;24.220;2023-02-15T00:31:07;99036.59;;;1.02;69.76
55066;BME280;40964;42.114;24.220;2023-02-15T00:33:34;99025.13;;;1.04;69.82
55066;BME280;40964;42.114;24.220;2023-02-15T00:36:00;99019.66;;;1.19;70.16
55066;BME280;40964;42.114;24.220;2023-02-15T00:38:27;99012.19;;;1.25;69.18
55066;BME280;40964;42.114;24.220;2023-02-15T00:40:57;99024.19;;;1.05;69.67
55066;BME280;40964;42.114;24.220;2023-02-15T00:43:24;99021.09;;;1.11;69.97
55066;BME280;40964;42.114;24.220;2023-02-15T00:45:50;99033.59;;;1.48;69.63
55066;BME280;40964;42.114;24.220;2023-02-15T00:48:16;99036.97;;;1.69;69.47
55066;BME280;40964;42.114;24.220;2023-02-15T00:50:41;99019.53;;;1.72;69.02
55066;BME280;40964;42.114;24.220;2023-02-15T00:53:09;99028.31;;;1.80;69.05
55066;BME280;40964;42.114;24.220;2023-02-15T00:55:35;99030.31;;;1.77;68.52
55066;BME280;40964;42.114;24.220;2023-02-15T00:58:00;99021.28;;;2.02;67.13
55066;BME280;40964;42.114;24.220;2023-02-15T01:00:26;99017.22;;;2.18;66.72
55066;BME280;40964;42.114;24.220;2023-02-15T01:02:51;99024.69;;;2.52;66.02
55066;BME280;40964;42.114;24.220;2023-02-15T01:05:17;99014.97;;;2.73;64.82
55066;BME280;40964;42.114;24.220;2023-02-15T01:07:42;99026.03;;;2.85;64.67
55066;BME280;40964;42.114;24.220;2023-02-15T01:10:08;99015.94;;;2.92;64.78
55066;BME280;40964;42.114;24.220;2023-02-15T01:12:34;99011.25;;;3.05;64.23
55066;BME280;40964;42.114;24.220;2023-02-15T01:14:59;99017.41;;;3.13;63.39
55066;BME280;40964;42.114;24.220;2023-02-15T01:17:25;99018.22;;;3.14;63.63
55066;BME280;40964;42.114;24.220;2023-02-15T01:19:51;99002.75;;;3.22;62.99
55066;BME280;40964;42.114;24.220;2023-02-15T01:22:17;99001.66;;;3.34;62.83
55066;BME280;40964;42.114;24.220;2023-02-15T01:24:43;98998.78;;;3.28;62.84
55066;BME280;40964;42.114;24.220;2023-02-15T01:27:09;98994.28;;;3.20;63.50
55066;BME280;40964;42.114;24.220;2023-02-15T01:29:34;98995.19;;;3.38;62.47
55066;BME280;40964;42.114;24.220;2023-02-15T01:32:00;98989.72;;;3.41;63.23
55066;BME280;40964;42.114;24.220;2023-02-15T01:34:25;98994.66;;;3.35;62.64
55066;BME280;40964;42.114;24.220;2023-02-15T01:36:51;98990.56;;;3.32;63.35
55066;BME280;40964;42.114;24.220;2023-02-15T01:39:16;98997.97;;;3.27;63.04
55066;BME280;40964;42.114;24.220;2023-02-15T01:41:42;98992.34;;;3.22;63.12
55066;BME280;40964;42.114;24.220;2023-02-15T01:47:14;99001.94;;;3.22;63.28
55066;BME280;40964;42.114;24.220;2023-02-15T01:49:42;99006.06;;;3.24;63.63
55066;BME280;40964;42.114;24.220;2023-02-15T01:52:13;99005.78;;;3.18;63.39
55066;BME280;40964;42.114;24.220;2023-02-15T01:54:40;99002.78;;;3.12;63.61
55066;BME280;40964;42.114;24.220;2023-02-15T01:57:09;99000.59;;;3.08;64.06
55066;BME280;40964;42.114;24.220;2023-02-15T01:59:38;98992.81;;;2.98;63.76
55066;BME280;40964;42.114;24.220;2023-02-15T02:02:07;99003.59;;;3.03;64.39
55066;BME280;40964;42.114;24.220;2023-02-15T02:04:39;99006.22;;;3.03;63.54
55066;BME280;40964;42.114;24.220;2023-02-15T02:07:07;98993.91;;;2.96;64.35
55066;BME280;40964;42.114;24.220;2023-02-15T02:09:34;99005.97;;;2.97;64.43
55066;BME280;40964;42.114;24.220;2023-02-15T02:12:01;99011.16;;;2.97;65.12
55066;BME280;40964;42.114;24.220;2023-02-15T02:14:27;99002.41;;;2.88;65.02
55066;BME280;40964;42.114;24.220;2023-02-15T02:17:02;99010.31;;;2.96;65.36
55066;BME280;40964;42.114;24.220;2023-02-15T02:22:24;99020.97;;;3.03;64.99
55066;BME280;40964;42.114;24.220;2023-02-15T02:28:12;99027.81;;;2.94;65.57
55066;BME280;40964;42.114;24.220;2023-02-15T02:36:42;99026.72;;;2.77;65.08
55066;BME280;40964;42.114;24.220;2023-02-15T02:39:35;99037.00;;;2.79;65.79
55066;BME280;40964;42.114;24.220;2023-02-15T02:45:25;99038.06;;;2.76;66.25
55066;BME280;40964;42.114;24.220;2023-02-15T02:47:59;99043.69;;;2.72;65.67
55066;BME280;40964;42.114;24.220;2023-02-15T02:50:26;99045.56;;;2.60;66.19
55066;BME280;40964;42.114;24.220;2023-02-15T02:52:54;99056.22;;;2.47;66.09
55066;BME280;40964;42.114;24.220;2023-02-15T02:55:49;99054.44;;;2.38;66.71
55066;BME280;40964;42.114;24.220;2023-02-15T03:01:24;99044.81;;;2.19;68.66
55066;BME280;40964;42.114;24.220;2023-02-15T03:03:54;99047.28;;;2.21;68.77
55066;BME280;40964;42.114;24.220;2023-02-15T03:06:42;99043.59;;;2.23;68.84
55066;BME280;40964;42.114;24.220;2023-02-15T03:09:42;99045.09;;;2.16;67.83
55066;BME280;40964;42.114;24.220;2023-02-15T03:12:26;99041.09;;;2.12;68.53
55066;BME280;40964;42.114;24.220;2023-02-15T03:15:01;99045.38;;;1.83;68.44
55066;BME280;40964;42.114;24.220;2023-02-15T03:17:44;99051.56;;;1.70;69.31
55066;BME280;40964;42.114;24.220;2023-02-15T03:20:18;99056.44;;;1.85;68.83
55066;BME280;40964;42.114;24.220;2023-02-15T03:22:53;99059.75;;;2.27;68.91
55066;BME280;40964;42.114;24.220;2023-02-15T03:25:39;99055.41;;;2.56;67.75
55066;BME280;40964;42.114;24.220;2023-02-15T03:28:09;99055.88;;;2.81;66.52
55066;BME280;40964;42.114;24.220;2023-02-15T03:30:37;99059.69;;;2.96;66.02
55066;BME280;40964;42.114;24.220;2023-02-15T03:33:05;99050.94;;;3.17;64.96
55066;BME280;40964;42.114;24.220;2023-02-15T03:35:44;99031.13;;;3.06;65.29
55066;BME280;40964;42.114;24.220;2023-02-15T03:38:17;99046.41;;;3.19;64.93
55066;BME280;40964;42.114;24.220;2023-02-15T03:40:46;99011.97;;;2.97;64.66
55066;BME280;40964;42.114;24.220;2023-02-15T03:43:41;99050.09;;;3.26;64.13
55066;BME280;40964;42.114;24.220;2023-02-15T03:48:55;99045.56;;;3.37;64.15
55066;BME280;40964;42.114;24.220;2023-02-15T03:51:26;99043.63;;;3.39;63.43
55066;BME280;40964;42.114;24.220;2023-02-15T03:54:00;99009.50;;;3.15;62.67
55066;BME280;40964;42.114;24.220;2023-02-15T03:56:26;99038.88;;;3.25;63.35
55066;BME280;40964;42.114;24.220;2023-02-15T03:58:52;99053.25;;;3.29;63.28
55066;BME280;40964;42.114;24.220;2023-02-15T04:04:37;99052.97;;;3.23;63.81
55066;BME280;40964;42.114;24.220;2023-02-15T04:07:06;99069.09;;;3.36;64.36
55066;BME280;40964;42.114;24.220;2023-02-15T04:09:32;99064.28;;;3.41;63.70
55066;BME280;40964;42.114;24.220;2023-02-15T04:12:16;99064.84;;;3.45;64.69
55066;BME280;40964;42.114;24.220;2023-02-15T04:14:42;99060.88;;;3.40;64.12
55066;BME280;40964;42.114;24.220;2023-02-15T04:17:26;99062.94;;;3.47;64.66
55066;BME280;40964;42.114;24.220;2023-02-15T04:19:52;99069.09;;;3.46;64.71
55066;BME280;40964;42.114;24.220;2023-02-15T04:22:36;99058.84;;;3.34;65.21
55066;BME280;40964;42.114;24.220;2023-02-15T04:25:26;99064.44;;;3.39;64.71
55066;BME280;40964;42.114;24.220;2023-02-15T04:27:53;99069.22;;;3.44;64.11
55066;BME280;40964;42.114;24.220;2023-02-15T04:30:21;99072.09;;;3.31;65.24
55066;BME280;40964;42.114;24.220;2023-02-15T04:32:47;99063.38;;;3.23;65.67
55066;BME280;40964;42.114;24.220;2023-02-15T04:35:13;99066.91;;;3.22;66.61
55066;BME280;40964;42.114;24.220;2023-02-15T04:37:39;99067.50;;;3.16;66.37
55066;BME280;40964;42.114;24.220;2023-02-15T04:40:06;99068.31;;;3.16;66.05
55066;BME280;40964;42.114;24.220;2023-02-15T04:42:33;99060.09;;;3.11;65.69
55066;BME280;40964;42.114;24.220;2023-02-15T04:44:58;99069.81;;;3.09;66.30
55066;BME280;40964;42.114;24.220;2023-02-15T04:47:24;99081.16;;;3.18;65.20
55066;BME280;40964;42.114;24.220;2023-02-15T04:49:50;99080.50;;;3.16;65.53
55066;BME280;40964;42.114;24.220;2023-02-15T04:52:15;99072.94;;;3.12;65.75
55066;BME280;40964;42.114;24.220;2023-02-15T04:54:43;99082.94;;;3.07;65.42
55066;BME280;40964;42.114;24.220;2023-02-15T04:57:08;99091.56;;;3.08;65.69
55066;BME280;40964;42.114;24.220;2023-02-15T04:59:34;99085.28;;;3.01;64.81
55066;BME280;40964;42.114;24.220;2023-02-15T05:01:59;99100.03;;;2.91;65.32
55066;BME280;40964;42.114;24.220;2023-02-15T05:04:25;99104.00;;;3.14;64.72
55066;BME280;40964;42.114;24.220;2023-02-15T05:06:51;99109.63;;;3.19;64.18
55066;BME280;40964;42.114;24.220;2023-02-15T05:09:16;99114.28;;;3.16;65.26
55066;BME280;40964;42.114;24.220;2023-02-15T05:11:42;99121.38;;;3.23;65.60
55066;BME280;40964;42.114;24.220;2023-02-15T05:14:07;99122.34;;;3.41;64.78
55066;BME280;40964;42.114;24.220;2023-02-15T05:16:33;99121.78;;;3.48;64.22
55066;BME280;40964;42.114;24.220;2023-02-15T05:18:58;99130.38;;;3.58;63.92
55066;BME280;40964;42.114;24.220;2023-02-15T05:21:24;99137.94;;;3.51;63.99
55066;BME280;40964;42.114;24.220;2023-02-15T05:23:50;99136.16;;;3.42;63.21
55066;BME280;40964;42.114;24.220;2023-02-15T05:26:21;99137.25;;;3.39;63.41
55066;BME280;40964;42.114;24.220;2023-02-15T05:29:05;99127.13;;;3.46;64.03
55066;BME280;40964;42.114;24.220;2023-02-15T05:31:31;99130.53;;;3.47;63.39
55066;BME280;40964;42.114;24.220;2023-02-15T05:33:57;99136.41;;;3.49;63.16
55066;BME280;40964;42.114;24.220;2023-02-15T05:36:23;99136.03;;;3.44;62.79
55066;BME280;40964;42.114;24.220;2023-02-15T05:38:48;99101.16;;;3.17;62.79
55066;BME280;40964;42.114;24.220;2023-02-15T05:41:14;99148.31;;;3.22;63.19
55066;BME280;40964;42.114;24.220;2023-02-15T05:43:39;99147.38;;;3.23;64.58
55066;BME280;40964;42.114;24.220;2023-02-15T05:46:05;99149.72;;;3.36;64.24
55066;BME280;40964;42.114;24.220;2023-02-15T05:48:31;99158.31;;;3.46;63.32
55066;BME280;40964;42.114;24.220;2023-02-15T05:51:05;99150.00;;;3.52;63.02
55066;BME280;40964;42.114;24.220;2023-02-15T05:53:33;99146.16;;;3.47;63.97
55066;BME280;40964;42.114;24.220;2023-02-15T05:56:00;99159.97;;;3.47;63.54
55066;BME280;40964;42.114;24.220;2023-02-15T05:58:26;99166.13;;;3.56;64.04
55066;BME280;40964;42.114;24.220;2023-02-15T06:00:52;99165.44;;;3.63;64.08
55066;BME280;40964;42.114;24.220;2023-02-15T06:03:18;99164.91;;;3.69;63.39
55066;BME280;40964;42.114;24.220;2023-02-15T06:05:43;99166.25;;;3.74;63.29
55066;BME280;40964;42.114;24.220;2023-02-15T06:08:09;99169.97;;;3.71;62.54
55066;BME280;40964;42.114;24.220;2023-02-15T06:10:34;99176.25;;;3.68;63.35
55066;BME280;40964;42.114;24.220;2023-02-15T06:12:59;99176.50;;;3.75;63.58
55066;BME280;40964;42.114;24.220;2023-02-15T06:15:25;99175.94;;;3.91;63.14
55066;BME280;40964;42.114;24.220;2023-02-15T06:17:50;99175.78;;;4.02;63.06
55066;BME280;40964;42.114;24.220;2023-02-15T06:20:16;99170.53;;;4.12;62.81
55066;BME280;40964;42.114;24.220;2023-02-15T06:22:41;99181.06;;;4.20;62.04
55066;BME280;40964;42.114;24.220;2023-02-15T06:25:07;99188.59;;;4.33;61.54
55066;BME280;40964;42.114;24.220;2023-02-15T06:27:35;99184.72;;;4.37;61.21
55066;BME280;40964;42.114;24.220;2023-02-15T06:30:01;99170.31;;;4.42;60.60
55066;BME280;40964;42.114;24.220;2023-02-15T06:32:26;99174.28;;;4.46;60.57
55066;BME280;40964;42.114;24.220;2023-02-15T06:34:52;99174.63;;;4.61;60.33
55066;BME280;40964;42.114;24.220;2023-02-15T06:37:17;99174.72;;;4.69;60.22
55066;BME280;40964;42.114;24.220;2023-02-15T06:39:43;99178.09;;;4.79;59.09
55066;BME280;40964;42.114;24.220;2023-02-15T06:42:09;99165.66;;;4.73;59.24
55066;BME280;40964;42.114;24.220;2023-02-15T06:44:34;99186.84;;;4.88;59.62
55066;BME280;40964;42.114;24.220;2023-02-15T06:47:00;99181.88;;;4.95;58.77
55066;BME280;40964;42.114;24.220;2023-02-15T06:49:25;99169.03;;;5.01;58.52
55066;BME280;40964;42.114;24.220;2023-02-15T06:51:51;99181.91;;;5.12;58.61
55066;BME280;40964;42.114;24.220;2023-02-15T06:54:16;99174.88;;;5.13;58.71
55066;BME280;40964;42.114;24.220;2023-02-15T06:56:42;99172.78;;;5.17;58.64
55066;BME280;40964;42.114;24.220;2023-02-15T06:59:08;99172.78;;;5.17;59.30
55066;BME280;40964;42.114;24.220;2023-02-15T07:01:34;99173.84;;;5.24;59.20
55066;BME280;40964;42.114;24.220;2023-02-15T07:04:02;99178.44;;;5.30;58.70
55066;BME280;40964;42.114;24.220;2023-02-15T07:06:31;99187.47;;;5.35;58.58
55066;BME280;40964;42.114;24.220;2023-02-15T07:08:58;99181.03;;;5.39;58.67
55066;BME280;40964;42.114;24.220;2023-02-15T07:11:24;99172.41;;;5.47;58.20
55066;BME280;40964;42.114;24.220;2023-02-15T07:14:08;99180.31;;;5.55;57.29
55066;BME280;40964;42.114;24.220;2023-02-15T07:16:33;99181.69;;;5.59;57.38
55066;BME280;40964;42.114;24.220;2023-02-15T07:18:58;99178.53;;;5.56;58.23
55066;BME280;40964;42.114;24.220;2023-02-15T07:21:24;99184.78;;;5.63;57.47
55066;BME280;40964;42.114;24.220;2023-02-15T07:23:50;99181.22;;;5.64;57.44
55066;BME280;40964;42.114;24.220;2023-02-15T07:26:15;99185.03;;;5.69;57.57
55066;BME280;40964;42.114;24.220;2023-02-15T07:28:40;99167.41;;;5.72;57.18
55066;BME280;40964;42.114;24.220;2023-02-15T07:31:06;99173.88;;;5.85;57.46
55066;BME280;40964;42.114;24.220;2023-02-15T07:33:32;99179.19;;;5.93;57.62
55066;BME280;40964;42.114;24.220;2023-02-15T07:36:00;99181.81;;;5.93;56.93
55066;BME280;40964;42.114;24.220;2023-02-15T07:38:33;99186.72;;;5.96;57.15
55066;BME280;40964;42.114;24.220;2023-02-15T07:41:09;99176.78;;;6.00;57.22
55066;BME280;40964;42.114;24.220;2023-02-15T07:43:38;99177.31;;;6.04;56.54
55066;BME280;40964;42.114;24.220;2023-02-15T07:46:07;99179.72;;;5.97;57.48
55066;BME280;40964;42.114;24.220;2023-02-15T07:48:34;99178.72;;;5.98;57.16
55066;BME280;40964;42.114;24.220;2023-02-15T07:51:01;99175.19;;;6.07;56.45
55066;BME280;40964;42.114;24.220;2023-02-15T07:53:27;99182.63;;;6.20;56.38
55066;BME280;40964;42.114;24.220;2023-02-15T07:55:52;99182.81;;;6.26;56.09
55066;BME280;40964;42.114;24.220;2023-02-15T07:58:18;99169.09;;;6.24;55.98
55066;BME280;40964;42.114;24.220;2023-02-15T08:00:44;99180.25;;;6.35;56.26
55066;BME280;40964;42.114;24.220;2023-02-15T08:03:25;99175.41;;;6.40;56.08
55066;BME280;40964;42.114;24.220;2023-02-15T08:05:56;99183.28;;;6.48;56.33
55066;BME280;40964;42.114;24.220;2023-02-15T08:08:22;99183.94;;;6.50;55.43
55066;BME280;40964;42.114;24.220;2023-02-15T08:16:35;99173.69;;;6.65;54.85
55066;BME280;40964;42.114;24.220;2023-02-15T08:21:35;99180.16;;;6.87;54.21
55066;BME280;40964;42.114;24.220;2023-02-15T08:24:03;99181.13;;;6.77;54.60
55066;BME280;40964;42.114;24.220;2023-02-15T08:26:30;99168.03;;;6.77;53.82
55066;BME280;40964;42.114;24.220;2023-02-15T08:28:57;99184.75;;;6.85;54.21
55066;BME280;40964;42.114;24.220;2023-02-15T08:31:23;99189.19;;;6.92;54.02
55066;BME280;40964;42.114;24.220;2023-02-15T08:33:51;99184.41;;;6.88;54.03
55066;BME280;40964;42.114;24.220;2023-02-15T08:36:19;99187.56;;;6.99;53.79
55066;BME280;40964;42.114;24.220;2023-02-15T08:38:45;99178.75;;;7.08;53.51
55066;BME280;40964;42.114;24.220;2023-02-15T08:41:21;99166.66;;;7.16;53.16
55066;BME280;40964;42.114;24.220;2023-02-15T08:43:48;99174.72;;;7.30;53.41
55066;BME280;40964;42.114;24.220;2023-02-15T08:46:18;99168.19;;;7.43;52.69
55066;BME280;40964;42.114;24.220;2023-02-15T08:48:45;99169.19;;;7.50;52.79
55066;BME280;40964;42.114;24.220;2023-02-15T08:51:13;99173.44;;;7.51;53.25
55066;BME280;40964;42.114;24.220;2023-02-15T08:53:40;99170.47;;;7.54;51.90
55066;BME280;40964;42.114;24.220;2023-02-15T08:56:07;99174.25;;;7.51;52.68
55066;BME280;40964;42.114;24.220;2023-02-15T08:58:33;99172.78;;;7.49;51.83
55066;BME280;40964;42.114;24.220;2023-02-15T09:00:59;99163.78;;;7.59;52.71
55066;BME280;40964;42.114;24.220;2023-02-15T09:03:28;99173.09;;;7.70;51.77
55066;BME280;40964;42.114;24.220;2023-02-15T09:06:00;99165.75;;;7.74;51.59
55066;BME280;40964;42.114;24.220;2023-02-15T09:08:27;99164.91;;;7.81;51.90
55066;BME280;40964;42.114;24.220;2023-02-15T09:10:54;99162.97;;;7.83;51.21
55066;BME280;40964;42.114;24.220;2023-02-15T09:13:20;99162.28;;;8.06;51.41
55066;BME280;40964;42.114;24.220;2023-02-15T09:15:46;99163.91;;;7.98;50.71
55066;BME280;40964;42.114;24.220;2023-02-15T09:18:12;99152.13;;;7.94;51.04
55066;BME280;40964;42.114;24.220;2023-02-15T09:20:43;99148.53;;;8.04;51.16
55066;BME280;40964;42.114;24.220;2023-02-15T09:23:09;99161.91;;;8.25;52.05
55066;BME280;40964;42.114;24.220;2023-02-15T09:25:34;99168.94;;;8.33;50.77
55066;BME280;40964;42.114;24.220;2023-02-15T09:28:00;99166.31;;;8.24;50.86
55066;BME280;40964;42.114;24.220;2023-02-15T09:30:25;99161.88;;;8.33;51.48
55066;BME280;40964;42.114;24.220;2023-02-15T09:32:51;99161.25;;;8.39;50.49
55066;BME280;40964;42.114;24.220;2023-02-15T09:35:16;99165.47;;;8.48;50.59
55066;BME280;40964;42.114;24.220;2023-02-15T09:37:42;99155.28;;;8.53;49.41
55066;BME280;40964;42.114;24.220;2023-02-15T09:40:08;99150.31;;;8.67;49.80
55066;BME280;40964;42.114;24.220;2023-02-15T09:45:42;99152.34;;;8.88;49.70
55066;BME280;40964;42.114;24.220;2023-02-15T09:56:18;99135.28;;;8.92;49.08
55066;BME280;40964;42.114;24.220;2023-02-15T10:19:29;99127.72;;;9.65;46.50
55066;BME280;40964;42.114;24.220;2023-02-15T10:24:43;99113.94;;;9.63;46.47
55066;BME280;40964;42.114;24.220;2023-02-15T10:27:13;99110.94;;;9.66;45.90
55066;BME280;40964;42.114;24.220;2023-02-15T10:32:26;99106.53;;;9.82;46.32
55066;BME280;40964;42.114;24.220;2023-02-15T10:35:00;99103.09;;;9.96;46.98
55066;BME280;40964;42.114;24.220;2023-02-15T10:40:25;99101.16;;;10.28;45.41
55066;BME280;40964;42.114;24.220;2023-02-15T10:42:55;99092.66;;;10.26;45.26
55066;BME280;40964;42.114;24.220;2023-02-15T11:07:35;99076.00;;;10.91;42.85
55066;BME280;40964;42.114;24.220;2023-02-15T11:13:22;99060.22;;;10.55;43.21
55066;BME280;40964;42.114;24.220;2023-02-15T11:15:59;99065.41;;;10.84;43.52
55066;BME280;40964;42.114;24.220;2023-02-15T11:23:25;99055.06;;;10.83;43.68
55066;BME280;40964;42.114;24.220;2023-02-15T11:25:56;99050.53;;;10.76;42.38
55066;BME280;40964;42.114;24.220;2023-02-15T11:28:27;99043.72;;;11.03;42.51
55066;BME280;40964;42.114;24.220;2023-02-15T11:30:56;99049.56;;;10.99;42.33
55066;BME280;40964;42.114;24.220;2023-02-15T11:33:29;99039.53;;;11.09;43.40
55066;BME280;40964;42.114;24.220;2023-02-15T11:36:01;99033.16;;;10.97;41.82
55066;BME280;40964;42.114;24.220;2023-02-15T11:38:32;99035.44;;;10.64;42.06
55066;BME280;40964;42.114;24.220;2023-02-15T11:41:10;99027.56;;;10.64;41.92
55066;BME280;40964;42.114;24.220;2023-02-15T11:43:46;99026.22;;;10.96;44.50
55066;BME280;40964;42.114;24.220;2023-02-15T11:46:13;99015.81;;;11.30;43.86
55066;BME280;40964;42.114;24.220;2023-02-15T11:48:40;99001.28;;;11.41;41.72
55066;BME280;40964;42.114;24.220;2023-02-15T11:51:16;99004.44;;;11.23;42.46
55066;BME280;40964;42.114;24.220;2023-02-15T11:53:43;99013.69;;;11.47;41.48
55066;BME280;40964;42.114;24.220;2023-02-15T11:56:25;99005.94;;;11.39;40.63
55066;BME280;40964;42.114;24.220;2023-02-15T11:59:03;99005.84;;;11.26;40.73
55066;BME280;40964;42.114;24.220;2023-02-15T12:01:45;99003.69;;;11.36;40.26
55066;BME280;40964;42.114;24.220;2023-02-15T12:04:24;99002.16;;;11.48;40.95
55066;BME280;40964;42.114;24.220;2023-02-15T12:12:26;99002.81;;;11.29;40.69
55066;BME280;40964;42.114;24.220;2023-02-15T12:15:03;99002.78;;;11.22;41.47
55066;BME280;40964;42.114;24.220;2023-02-15T12:17:32;98994.66;;;11.45;41.32
55066;BME280;40964;42.114;24.220;2023-02-15T12:20:21;99002.16;;;11.48;40.78
55066;BME280;40964;42.114;24.220;2023-02-15T12:22:51;98998.66;;;11.69;41.06
55066;BME280;40964;42.114;24.220;2023-02-15T12:27:59;98994.50;;;12.29;40.74
55066;BME280;40964;42.114;24.220;2023-02-15T12:30:30;98991.72;;;12.44;39.48
55066;BME280;40964;42.114;24.220;2023-02-15T12:33:14;98985.22;;;12.46;39.49
55066;BME280;40964;42.114;24.220;2023-02-15T12:35:40;98985.47;;;12.58;38.99
55066;BME280;40964;42.114;24.220;2023-02-15T12:40:36;98977.91;;;12.42;38.34
55066;BME280;40964;42.114;24.220;2023-02-15T12:43:02;98982.22;;;12.69;39.11
55066;BME280;40964;42.114;24.220;2023-02-15T12:45:36;98984.44;;;12.53;38.71
55066;BME280;40964;42.114;24.220;2023-02-15T12:48:16;98986.06;;;12.54;38.15
55066;BME280;40964;42.114;24.220;2023-02-15T12:50:49;98975.78;;;12.17;38.75
55066;BME280;40964;42.114;24.220;2023-02-15T12:53:19;98977.81;;;12.22;38.88
55066;BME280;40964;42.114;24.220;2023-02-15T12:58:24;98969.69;;;12.10;38.45
55066;BME280;40964;42.114;24.220;2023-02-15T13:01:17;98970.25;;;11.99;38.67
55066;BME280;40964;42.114;24.220;2023-02-15T13:04:01;98969.63;;;11.97;38.33
55066;BME280;40964;42.114;24.220;2023-02-15T13:06:28;98969.75;;;11.82;38.76
55066;BME280;40964;42.114;24.220;2023-02-15T13:09:14;98967.94;;;11.83;39.04
55066;BME280;40964;42.114;24.220;2023-02-15T13:11:41;98968.34;;;11.80;38.33
55066;BME280;40964;42.114;24.220;2023-02-15T13:14:33;98963.66;;;12.23;38.30
55066;BME280;40964;42.114;24.220;2023-02-15T13:17:01;98962.81;;;12.16;37.66
55066;BME280;40964;42.114;24.220;2023-02-15T13:19:46;98934.38;;;12.05;37.92
55066;BME280;40964;42.114;24.220;2023-02-15T13:22:20;98957.09;;;12.06;37.42
55066;BME280;40964;42.114;24.220;2023-02-15T13:24:51;98956.63;;;11.89;38.30
55066;BME280;40964;42.114;24.220;2023-02-15T13:27:24;98950.78;;;12.00;38.65
55066;BME280;40964;42.114;24.220;2023-02-15T13:29:54;98958.56;;;12.15;38.26
55066;BME280;40964;42.114;24.220;2023-02-15T13:32:34;98953.09;;;12.30;37.95
55066;BME280;40964;42.114;24.220;2023-02-15T13:35:02;98956.22;;;12.53;38.09
55066;BME280;40964;42.114;24.220;2023-02-15T13:40:25;98950.50;;;12.43;37.13
55066;BME280;40964;42.114;24.220;2023-02-15T13:43:02;98952.91;;;12.25;37.78
55066;BME280;40964;42.114;24.220;2023-02-15T13:45:41;98947.84;;;12.23;37.48
55066;BME280;40964;42.114;24.220;2023-02-15T13:51:43;98942.91;;;11.72;38.21
55066;BME280;40964;42.114;24.220;2023-02-15T13:54:32;98945.03;;;11.83;38.39
55066;BME280;40964;42.114;24.220;2023-02-15T13:59:42;98945.56;;;11.72;37.85
55066;BME280;40964;42.114;24.220;2023-02-15T14:04:58;98949.13;;;11.58;37.79
55066;BME280;40964;42.114;24.220;2023-02-15T14:10:29;98945.00;;;11.49;37.53
55066;BME280;40964;42.114;24.220;2023-02-15T14:16:36;98954.88;;;11.40;38.10
55066;BME280;40964;42.114;24.220;2023-02-15T14:21:32;98953.59;;;11.29;38.21
55066;BME280;40964;42.114;24.220;2023-02-15T14:24:14;98951.84;;;11.36;38.34
55066;BME280;40964;42.114;24.220;2023-02-15T14:30:03;98956.53;;;11.13;38.94
55066;BME280;40964;42.114;24.220;2023-02-15T14:32:38;98957.44;;;10.99;38.80
55066;BME280;40964;42.114;24.220;2023-02-15T14:35:21;98950.28;;;10.93;39.33
55066;BME280;40964;42.114;24.220;2023-02-15T14:38:15;98957.50;;;10.84;40.11
55066;BME280;40964;42.114;24.220;2023-02-15T14:48:53;98956.63;;;10.34;42.29
55066;BME280;40964;42.114;24.220;2023-02-15T15:04:54;98944.78;;;9.05;45.94
55066;BME280;40964;42.114;24.220;2023-02-15T15:07:24;98980.03;;;9.26;45.79
55066;BME280;40964;42.114;24.220;2023-02-15T15:12:46;98985.56;;;8.93;46.31
55066;BME280;40964;42.114;24.220;2023-02-15T15:15:33;98987.84;;;8.73;47.05
55066;BME280;40964;42.114;24.220;2023-02-15T15:18:10;98983.88;;;8.55;47.45
55066;BME280;40964;42.114;24.220;2023-02-15T15:20:46;98997.38;;;8.43;47.43
55066;BME280;40964;42.114;24.220;2023-02-15T15:25:48;99002.03;;;8.25;47.84
55066;BME280;40964;42.114;24.220;2023-02-15T15:31:08;98999.50;;;8.09;48.31
55066;BME280;40964;42.114;24.220;2023-02-15T15:33:59;99006.25;;;7.95;48.71
55066;BME280;40964;42.114;24.220;2023-02-15T15:50:41;99024.25;;;7.26;50.29
55066;BME280;40964;42.114;24.220;2023-02-15T15:53:18;99036.69;;;7.08;50.86
55066;BME280;40964;42.114;24.220;2023-02-15T15:55:47;99031.59;;;6.98;51.01
55066;BME280;40964;42.114;24.220;2023-02-15T15:58:16;99022.78;;;6.91;50.87
55066;BME280;40964;42.114;24.220;2023-02-15T16:00:46;99029.66;;;6.84;51.50
55066;BME280;40964;42.114;24.220;2023-02-15T16:03:30;99028.47;;;6.70;51.88
55066;BME280;40964;42.114;24.220;2023-02-15T16:05:56;99027.97;;;6.59;52.22
55066;BME280;40964;42.114;24.220;2023-02-15T16:08:27;99029.09;;;6.48;52.76
55066;BME280;40964;42.114;24.220;2023-02-15T16:10:52;99031.03;;;6.46;52.74
55066;BME280;40964;42.114;24.220;2023-02-15T16:13:18;99036.91;;;6.40;52.58
55066;BME280;40964;42.114;24.220;2023-02-15T16:15:47;99039.53;;;6.40;52.59
55066;BME280;40964;42.114;24.220;2023-02-15T16:18:18;99030.69;;;6.33;52.49
55066;BME280;40964;42.114;24.220;2023-02-15T16:20:57;99035.75;;;6.34;52.81